createdAt,value
2022-07-28T00:02:18.178Z,5.35
2022-07-28T00:04:51.857Z,5.90
2022-07-28T00:07:25.276Z,5.30
2022-07-28T00:10:00.510Z,5.00
2022-07-28T00:12:34.106Z,5.10
2022-07-28T00:15:07.714Z,5.38
2022-07-28T00:17:40.474Z,5.30
2022-07-28T00:24:38.542Z,5.25
2022-07-28T00:27:11.694Z,8.82
2022-07-28T00:29:50.193Z,9.45
2022-07-28T00:32:23.828Z,9.00
2022-07-28T00:34:57.313Z,10.70
2022-07-28T00:37:30.431Z,12.23
2022-07-28T00:40:04.800Z,11.88
2022-07-28T00:42:37.776Z,11.70
2022-07-28T00:45:12.368Z,10.95
2022-07-28T00:47:45.271Z,12.13
2022-07-28T00:50:21.514Z,10.68
2022-07-28T00:52:55.215Z,11.05
2022-07-28T00:55:28.359Z,11.88
2022-07-28T00:58:02.343Z,11.82
2022-07-28T01:00:35.664Z,12.10
2022-07-28T01:03:09.006Z,12.23
2022-07-28T01:06:02.347Z,11.45
2022-07-28T01:09:00.178Z,11.55
2022-07-28T01:11:51.777Z,12.93
2022-07-28T01:14:28.015Z,11.70
2022-07-28T01:17:26.769Z,10.30
2022-07-28T01:20:50.230Z,10.48
2022-07-28T01:23:32.284Z,9.88
2022-07-28T01:26:22.338Z,9.30
2022-07-28T01:29:26.043Z,9.70
2022-07-28T01:32:09.037Z,9.50
2022-07-28T01:34:52.891Z,8.95
2022-07-28T01:37:51.633Z,8.98
2022-07-28T01:40:30.194Z,8.45
2022-07-28T01:43:08.522Z,8.38
2022-07-28T01:45:44.158Z,8.43
2022-07-28T01:48:19.605Z,8.60
2022-07-28T01:53:28.413Z,7.82
2022-07-28T01:56:05.542Z,7.80
2022-07-28T01:58:39.657Z,8.40
2022-07-28T02:01:14.786Z,8.18
2022-07-28T02:03:49.141Z,8.20
2022-07-28T02:06:23.765Z,8.27
2022-07-28T02:08:58.561Z,9.25
2022-07-28T02:11:43.793Z,9.15
2022-07-28T02:14:25.340Z,8.45
2022-07-28T02:17:02.783Z,8.65
2022-07-28T02:19:37.634Z,8.43
2022-07-28T02:22:11.956Z,8.50
2022-07-28T02:24:47.239Z,8.07
2022-07-28T02:27:51.431Z,7.88
2022-07-28T02:30:36.152Z,9.02
2022-07-28T02:33:59.698Z,8.80
2022-07-28T02:36:22.549Z,8.43
2022-07-28T02:39:02.410Z,7.95
2022-07-28T02:41:40.891Z,8.10
2022-07-28T02:44:20.511Z,8.30
2022-07-28T02:46:55.997Z,8.00
2022-07-28T02:49:34.279Z,7.25
2022-07-28T02:52:08.915Z,6.97
2022-07-28T02:54:42.627Z,7.38
2022-07-28T02:57:17.883Z,7.15
2022-07-28T02:59:52.074Z,7.05
2022-07-28T03:02:25.562Z,7.30
2022-07-28T03:04:59.635Z,6.65
2022-07-28T03:07:33.851Z,7.55
2022-07-28T03:10:07.004Z,7.63
2022-07-28T03:12:39.841Z,7.00
2022-07-28T03:15:13.206Z,6.40
2022-07-28T03:17:46.203Z,6.07
2022-07-28T03:20:19.586Z,6.25
2022-07-28T03:22:52.512Z,6.50
2022-07-28T03:25:38.236Z,6.97
2022-07-28T03:28:15.468Z,6.80
2022-07-28T03:31:08.444Z,7.90
2022-07-28T03:33:41.984Z,7.13
2022-07-28T03:36:19.396Z,7.20
2022-07-28T03:39:01.235Z,7.50
2022-07-28T03:41:34.963Z,7.88
2022-07-28T03:44:09.637Z,7.35
2022-07-28T03:46:46.356Z,8.63
2022-07-28T03:49:19.598Z,7.90
2022-07-28T03:51:52.833Z,7.53
2022-07-28T03:54:26.074Z,7.60
2022-07-28T03:56:59.003Z,7.10
2022-07-28T03:59:31.957Z,7.60
2022-07-28T04:02:04.932Z,7.95
2022-07-28T04:04:39.237Z,7.63
2022-07-28T04:07:17.820Z,7.85
2022-07-28T04:09:50.470Z,8.52
2022-07-28T04:12:23.188Z,7.00
2022-07-28T05:03:20.465Z,6.88
2022-07-28T05:05:54.438Z,7.60
2022-07-28T05:08:27.816Z,6.70
2022-07-28T05:11:00.551Z,6.47
2022-07-28T05:13:34.772Z,6.75
2022-07-28T05:16:07.568Z,7.40
2022-07-28T05:18:42.952Z,7.45
2022-07-28T05:21:15.659Z,7.85
2022-07-28T05:23:55.894Z,8.50
2022-07-28T05:26:32.871Z,7.68
2022-07-28T05:29:05.849Z,7.70
2022-07-28T05:31:38.456Z,7.88
2022-07-28T05:34:11.768Z,7.80
2022-07-28T05:36:45.629Z,7.47
2022-07-28T05:43:44.513Z,6.80
2022-07-28T05:46:17.515Z,6.85
2022-07-28T05:48:50.986Z,6.82
2022-07-28T05:52:15.316Z,6.78
2022-07-28T05:54:48.284Z,6.63
2022-07-28T05:57:21.256Z,6.97
2022-07-28T05:59:54.295Z,7.10
2022-07-28T06:02:52.703Z,6.15
2022-07-28T06:09:50.057Z,7.13
2022-07-28T06:12:26.862Z,8.30
2022-07-28T06:15:02.797Z,7.10
2022-07-28T06:17:35.814Z,7.45
2022-07-28T06:20:09.964Z,7.07
2022-07-28T06:22:47.795Z,7.13
2022-07-28T06:25:23.331Z,7.38
2022-07-28T06:30:31.047Z,7.25
2022-07-28T06:33:06.096Z,7.18
2022-07-28T06:35:47.951Z,7.00
2022-07-28T06:38:22.202Z,6.80
2022-07-28T06:40:56.125Z,6.85
2022-07-28T06:43:29.452Z,6.95
2022-07-28T06:46:02.757Z,6.88
2022-07-28T06:48:39.938Z,6.80
2022-07-28T06:51:15.484Z,6.70
2022-07-28T06:53:49.026Z,6.70
2022-07-28T06:56:23.389Z,7.22
2022-07-28T06:58:56.672Z,7.18
2022-07-28T07:01:30.500Z,6.60
2022-07-28T07:04:03.678Z,7.20
2022-07-28T07:07:14.867Z,7.82
2022-07-28T07:18:57.870Z,7.30
2022-07-28T07:25:03.950Z,7.95
2022-07-28T07:37:07.990Z,7.35
2022-07-28T07:40:34.152Z,7.97
2022-07-28T07:48:27.799Z,7.40
2022-07-28T07:56:40.090Z,8.38
2022-07-28T08:03:37.132Z,7.90
2022-07-28T08:06:10.891Z,7.85
2022-07-28T08:08:48.514Z,7.82
2022-07-28T08:11:22.092Z,7.50
2022-07-28T08:13:55.210Z,7.70
2022-07-28T08:16:28.484Z,8.15
2022-07-28T08:19:01.951Z,7.78
2022-07-28T08:21:35.124Z,8.05
2022-07-28T08:24:08.787Z,7.70
2022-07-28T08:26:51.569Z,8.05
2022-07-28T08:29:24.842Z,8.77
2022-07-28T08:31:58.679Z,7.03
2022-07-28T08:34:33.933Z,8.10
2022-07-28T08:37:08.041Z,8.57
2022-07-28T08:39:42.953Z,8.00
2022-07-28T08:42:19.105Z,8.25
2022-07-28T08:45:15.577Z,8.85
2022-07-28T08:48:07.829Z,8.32
2022-07-28T08:51:22.540Z,9.85
2022-07-28T08:58:19.651Z,10.05
2022-07-28T09:01:24.551Z,9.52
2022-07-28T09:04:12.656Z,9.57
2022-07-28T09:06:48.851Z,7.43
2022-07-28T09:09:23.014Z,9.95
2022-07-28T09:11:56.454Z,10.50
2022-07-28T09:14:29.584Z,10.45
2022-07-28T09:17:05.426Z,10.10
2022-07-28T09:19:40.012Z,9.57
2022-07-28T09:22:17.242Z,10.20
2022-07-28T09:25:23.274Z,10.32
2022-07-28T09:27:57.455Z,10.88
2022-07-28T09:30:32.079Z,9.63
2022-07-28T09:33:43.141Z,11.77
2022-07-28T09:37:36.273Z,9.48
2022-07-28T09:40:17.430Z,8.25
2022-07-28T09:42:50.692Z,8.07
2022-07-28T09:45:28.303Z,10.95
2022-07-28T09:48:11.850Z,9.55
2022-07-28T09:50:45.493Z,10.93
2022-07-28T09:53:30.482Z,9.98
2022-07-28T09:56:08.608Z,9.65
2022-07-28T09:58:43.982Z,9.15
2022-07-28T10:01:24.430Z,9.68
2022-07-28T10:04:02.848Z,10.07
2022-07-28T10:06:38.359Z,8.50
2022-07-28T10:09:14.787Z,9.93
2022-07-28T10:11:50.056Z,7.85
2022-07-28T10:14:32.854Z,8.65
2022-07-28T10:17:10.145Z,8.18
2022-07-28T10:19:45.185Z,7.70
2022-07-28T10:22:19.493Z,7.68
2022-07-28T10:24:59.450Z,8.45
2022-07-28T10:27:33.943Z,6.70
2022-07-28T10:31:20.104Z,8.13
2022-07-28T10:34:03.294Z,8.20
2022-07-28T10:36:37.877Z,8.82
2022-07-28T10:39:14.998Z,6.35
2022-07-28T10:41:48.565Z,6.20
2022-07-28T10:44:26.107Z,7.07
2022-07-28T10:47:02.179Z,7.95
2022-07-28T10:49:36.739Z,7.38
2022-07-28T10:52:30.393Z,6.75
2022-07-28T10:55:49.229Z,8.27
2022-07-28T10:58:47.270Z,6.35
2022-07-28T11:01:48.569Z,7.38
2022-07-28T11:04:53.364Z,6.18
2022-07-28T11:07:39.128Z,6.75
2022-07-28T11:10:19.692Z,6.68
2022-07-28T11:12:57.241Z,6.82
2022-07-28T11:15:35.539Z,6.88
2022-07-28T11:18:11.486Z,6.38
2022-07-28T11:20:58.536Z,6.68
2022-07-28T11:23:47.645Z,6.53
2022-07-28T11:26:22.514Z,6.70
2022-07-28T11:29:04.675Z,6.32
2022-07-28T11:31:51.289Z,6.45
2022-07-28T11:34:25.671Z,6.38
2022-07-28T11:37:03.953Z,6.23
2022-07-28T11:39:43.497Z,7.50
2022-07-28T11:42:31.310Z,7.03
2022-07-28T11:45:36.897Z,7.38
2022-07-28T11:48:17.108Z,6.47
2022-07-28T11:51:07.987Z,7.55
2022-07-28T11:53:47.222Z,7.63
2022-07-28T11:56:24.458Z,8.45
2022-07-28T11:59:04.654Z,7.43
2022-07-28T12:01:38.780Z,7.60
2022-07-28T12:04:15.067Z,7.93
2022-07-28T12:06:53.261Z,7.50
2022-07-28T12:09:41.964Z,7.50
2022-07-28T12:12:16.049Z,7.25
2022-07-28T12:14:56.262Z,7.10
2022-07-28T12:17:40.659Z,6.95
2022-07-28T12:20:17.828Z,7.50
2022-07-28T12:23:04.141Z,7.60
2022-07-28T12:25:50.898Z,7.78
2022-07-28T12:28:30.592Z,7.72
2022-07-28T12:31:14.529Z,8.13
2022-07-28T12:33:55.941Z,8.02
2022-07-28T12:36:30.868Z,7.93
2022-07-28T12:39:12.976Z,7.53
2022-07-28T12:41:49.870Z,8.70
2022-07-28T12:44:37.830Z,8.00
2022-07-28T12:47:12.796Z,7.93
2022-07-28T12:52:23.929Z,8.20
2022-07-28T12:54:57.515Z,6.82
2022-07-28T12:57:46.093Z,7.10
2022-07-28T13:00:24.668Z,7.07
2022-07-28T13:02:59.487Z,6.93
2022-07-28T13:05:33.091Z,7.28
2022-07-28T13:08:09.506Z,7.35
2022-07-28T13:10:48.749Z,6.97
2022-07-28T13:13:25.309Z,8.27
2022-07-28T13:16:17.409Z,6.75
2022-07-28T13:18:56.144Z,6.40
2022-07-28T13:21:58.315Z,6.28
2022-07-28T13:24:36.633Z,7.07
2022-07-28T13:27:15.969Z,6.43
2022-07-28T13:29:52.123Z,5.97
2022-07-28T13:32:25.817Z,7.18
2022-07-28T13:35:00.305Z,6.55
2022-07-28T13:37:36.785Z,6.72
2022-07-28T13:40:10.720Z,6.30
2022-07-28T13:42:52.538Z,6.72
2022-07-28T13:45:32.120Z,7.22
2022-07-28T13:48:09.176Z,5.97
2022-07-28T13:50:45.888Z,6.93
2022-07-28T13:53:22.218Z,5.82
2022-07-28T13:55:57.994Z,7.07
2022-07-28T13:58:31.493Z,7.03
2022-07-28T14:01:08.159Z,6.18
2022-07-28T14:03:55.758Z,6.05
2022-07-28T14:06:33.412Z,6.15
2022-07-28T14:09:18.833Z,5.88
2022-07-28T14:11:56.922Z,6.45
2022-07-28T14:14:34.610Z,6.13
2022-07-28T14:17:25.951Z,6.35
2022-07-28T14:20:03.792Z,6.63
2022-07-28T14:22:38.185Z,6.72
2022-07-28T14:25:19.421Z,5.83
2022-07-28T14:27:55.843Z,5.72
2022-07-28T14:30:29.953Z,6.38
2022-07-28T14:33:05.965Z,6.07
2022-07-28T14:35:39.676Z,6.00
2022-07-28T14:38:50.318Z,5.95
2022-07-28T14:41:06.568Z,5.60
2022-07-28T14:43:41.221Z,5.85
2022-07-28T14:46:19.205Z,5.57
2022-07-28T14:48:57.757Z,5.70
2022-07-28T14:51:33.179Z,5.75
2022-07-28T14:54:10.847Z,6.10
2022-07-28T14:56:47.331Z,5.78
2022-07-28T14:59:23.349Z,5.78
2022-07-28T15:01:56.806Z,5.82
2022-07-28T15:04:30.118Z,5.72
2022-07-28T15:07:03.532Z,5.90
2022-07-28T15:09:43.431Z,6.32
2022-07-28T15:12:20.906Z,5.85
2022-07-28T15:14:54.235Z,5.78
2022-07-28T15:17:27.532Z,5.70
2022-07-28T15:20:00.889Z,5.65
2022-07-28T15:22:36.736Z,5.95
2022-07-28T15:25:14.242Z,6.05
2022-07-28T15:27:50.054Z,5.70
2022-07-28T15:30:25.649Z,6.30
2022-07-28T15:33:01.663Z,5.88
2022-07-28T15:35:56.597Z,5.72
2022-07-28T15:38:34.341Z,5.35
2022-07-28T15:41:12.890Z,5.85
2022-07-28T15:43:55.538Z,5.30
2022-07-28T15:46:31.428Z,5.50
2022-07-28T15:49:12.644Z,5.57
2022-07-28T15:52:07.235Z,5.80
2022-07-28T15:54:40.737Z,5.85
2022-07-28T15:57:17.769Z,5.63
2022-07-28T15:59:57.770Z,5.50
2022-07-28T16:02:36.062Z,5.72
2022-07-28T16:14:53.562Z,5.10
2022-07-28T16:17:26.745Z,5.57
2022-07-28T16:20:02.430Z,5.47
2022-07-28T16:22:40.772Z,6.13
2022-07-28T16:25:44.818Z,5.57
2022-07-28T16:28:58.477Z,5.72
2022-07-28T16:31:57.163Z,7.85
2022-07-28T16:34:36.497Z,4.90
2022-07-28T16:37:34.727Z,5.13
2022-07-28T16:40:12.473Z,4.60
2022-07-28T16:42:46.250Z,5.05
2022-07-28T16:45:20.317Z,4.55
2022-07-28T16:47:53.855Z,4.72
2022-07-28T16:50:27.860Z,4.82
2022-07-28T16:53:03.651Z,4.07
2022-07-28T16:55:36.807Z,4.50
2022-07-28T16:58:11.197Z,4.88
2022-07-28T17:01:46.860Z,4.15
2022-07-28T17:04:21.149Z,4.32
2022-07-28T17:06:54.760Z,4.25
2022-07-28T17:09:28.213Z,4.32
2022-07-28T17:12:01.417Z,4.70
2022-07-28T17:14:34.516Z,4.35
2022-07-28T17:17:07.656Z,4.72
2022-07-28T17:19:46.740Z,4.18
2022-07-28T17:22:33.041Z,4.03
2022-07-28T17:25:22.520Z,4.88
2022-07-28T17:28:25.891Z,4.60
2022-07-28T17:30:59.190Z,3.92
2022-07-28T17:33:33.283Z,4.85
2022-07-28T17:36:34.778Z,4.20
2022-07-28T17:39:19.531Z,4.78
2022-07-28T17:42:20.850Z,4.57
2022-07-28T17:44:56.728Z,4.50
2022-07-28T17:47:43.511Z,4.50
2022-07-28T17:50:42.775Z,4.38
2022-07-28T17:53:26.715Z,4.60
2022-07-28T18:00:26.335Z,4.13
2022-07-28T18:02:59.346Z,4.50
2022-07-28T18:05:34.103Z,4.45
2022-07-28T18:13:21.779Z,5.13
2022-07-28T18:15:56.110Z,4.10
2022-07-28T18:18:29.818Z,4.47
2022-07-28T18:21:06.431Z,4.03
2022-07-28T18:23:39.785Z,4.55
2022-07-28T18:26:13.332Z,4.43
2022-07-28T18:28:47.092Z,15.90
2022-07-28T18:31:20.519Z,4.32
2022-07-28T18:34:56.396Z,5.93
2022-07-28T18:37:30.948Z,8.05
2022-07-28T18:40:05.824Z,7.13
2022-07-28T18:42:48.035Z,7.23
2022-07-28T18:45:46.554Z,5.43
2022-07-28T18:48:25.959Z,5.63
2022-07-28T18:51:25.650Z,4.63
2022-07-28T18:53:58.896Z,4.50
2022-07-28T18:57:25.003Z,4.50
2022-07-28T19:04:28.129Z,4.63
2022-07-28T19:07:02.824Z,4.68
2022-07-28T19:09:41.933Z,5.65
2022-07-28T19:13:19.441Z,4.57
2022-07-28T19:15:53.823Z,5.20
2022-07-28T19:18:27.737Z,6.72
2022-07-28T19:21:10.089Z,5.78
2022-07-28T19:23:45.163Z,5.10
2022-07-28T19:26:18.643Z,5.10
2022-07-28T19:29:20.597Z,4.80
2022-07-28T19:36:17.868Z,4.63
2022-07-28T19:38:51.972Z,4.90
2022-07-28T19:41:26.978Z,4.53
2022-07-28T19:44:00.848Z,4.60
2022-07-28T19:46:34.477Z,4.72
2022-07-28T19:50:12.132Z,4.40
2022-07-28T19:55:18.838Z,4.60
2022-07-28T20:02:15.130Z,4.60
2022-07-28T20:04:48.568Z,4.97
2022-07-28T20:07:24.911Z,5.00
2022-07-28T20:09:59.146Z,4.75
2022-07-28T20:12:36.642Z,4.65
2022-07-28T20:15:36.984Z,4.50
2022-07-28T20:18:10.463Z,4.80
2022-07-28T20:20:43.758Z,5.00
2022-07-28T20:23:17.351Z,4.70
2022-07-28T20:25:50.713Z,4.85
2022-07-28T20:28:24.877Z,5.00
2022-07-28T20:30:58.885Z,4.82
2022-07-28T20:33:32.393Z,5.25
2022-07-28T20:36:06.774Z,4.75
2022-07-28T20:38:41.036Z,5.00
2022-07-28T20:41:15.270Z,4.78
2022-07-28T20:44:11.416Z,5.13
2022-07-28T20:46:43.751Z,4.55
2022-07-28T20:49:18.131Z,4.18
2022-07-28T20:51:52.012Z,4.83
2022-07-28T20:54:27.023Z,4.80
2022-07-28T20:57:00.549Z,4.43
2022-07-28T20:59:33.604Z,4.90
2022-07-28T21:05:08.360Z,5.38
2022-07-28T21:08:04.876Z,4.47
2022-07-28T21:10:39.993Z,4.70
2022-07-28T21:13:13.407Z,5.00
2022-07-28T21:15:46.665Z,4.32
2022-07-28T21:18:19.887Z,5.10
2022-07-28T21:20:53.177Z,4.78
2022-07-28T21:23:26.676Z,4.95
2022-07-28T21:25:59.949Z,4.80
2022-07-28T21:28:51.718Z,4.97
2022-07-28T21:31:25.366Z,5.05
2022-07-28T21:33:58.595Z,4.80
2022-07-28T21:36:31.999Z,4.57
2022-07-28T21:39:06.142Z,4.95
2022-07-28T21:41:39.460Z,5.20
2022-07-28T21:44:13.166Z,4.85
2022-07-28T21:46:46.367Z,5.10
2022-07-28T21:49:19.892Z,4.50
2022-07-28T21:51:53.449Z,4.40
2022-07-28T21:54:26.812Z,4.90
2022-07-28T21:57:00.081Z,4.68
2022-07-28T21:59:33.444Z,5.22
2022-07-28T22:02:06.773Z,4.97
2022-07-28T22:04:40.141Z,5.10
2022-07-28T22:07:13.853Z,4.80
2022-07-28T22:09:47.327Z,5.22
2022-07-28T22:12:20.573Z,5.13
2022-07-28T22:14:53.664Z,4.82
2022-07-28T22:17:26.786Z,5.32
2022-07-28T22:20:00.356Z,5.47
2022-07-28T22:22:33.717Z,5.20
2022-07-28T22:25:07.085Z,5.00
2022-07-28T22:27:40.097Z,5.72
2022-07-28T22:30:13.343Z,5.88
2022-07-28T22:32:46.646Z,5.60
2022-07-28T22:35:20.318Z,6.10
2022-07-28T22:37:53.647Z,6.13
2022-07-28T22:40:26.902Z,6.47
2022-07-28T22:43:00.462Z,6.75
2022-07-28T22:45:51.115Z,6.75
2022-07-28T22:48:24.857Z,6.15
2022-07-28T22:50:57.922Z,6.28
2022-07-28T22:53:31.169Z,6.68
2022-07-28T22:56:05.029Z,6.65
2022-07-28T22:58:38.702Z,8.23
2022-07-28T23:01:12.240Z,8.98
2022-07-28T23:03:46.319Z,9.80
2022-07-28T23:06:20.833Z,10.02
2022-07-28T23:08:54.217Z,11.40
2022-07-28T23:11:27.509Z,11.65
2022-07-28T23:14:00.861Z,12.48
2022-07-28T23:16:34.089Z,14.23
2022-07-28T23:19:07.339Z,15.30
2022-07-28T23:21:41.168Z,14.50
2022-07-28T23:24:14.494Z,15.25
2022-07-28T23:26:48.215Z,13.93
2022-07-28T23:29:21.777Z,12.25
2022-07-28T23:31:55.146Z,16.35
2022-07-28T23:34:28.638Z,15.30
2022-07-28T23:37:01.916Z,16.55
2022-07-28T23:39:35.047Z,16.23
2022-07-28T23:42:08.325Z,16.63
2022-07-28T23:44:41.466Z,16.63
2022-07-28T23:47:14.718Z,16.45
2022-07-28T23:49:48.189Z,17.15
2022-07-28T23:52:21.691Z,15.02
2022-07-28T23:54:54.887Z,17.23
2022-07-28T23:57:30.845Z,16.60
